sensor_id;sensor_type;location;lat;lon;timestamp;pressure;altitude;pressure_sealevel;temperature;humidity
42633;BME280;28261;53.304;-6.284;2023-02-17T00:01:31;100930.94;;;11.45;100.00
42633;BME280;28261;53.304;-6.284;2023-02-17T00:03:35;100933.59;;;11.45;100.00
42633;BME280;28261;53.304;-6.284;2023-02-17T00:05:38;100934.56;;;11.44;100.00
42633;BME280;28261;53.304;-6.284;2023-02-17T00:07:43;100924.91;;;11.43;100.00
42633;BME280;28261;53.304;-6.284;2023-02-17T00:09:46;100927.56;;;11.43;100.00
42633;BME280;28261;53.304;-6.284;2023-02-17T00:11:50;100935.63;;;11.42;100.00
42633;BME280;28261;53.304;-6.284;2023-02-17T00:13:53;100921.50;;;11.41;100.00
42633;BME280;28261;53.304;-6.284;2023-02-17T00:15:57;100933.09;;;11.40;100.00
42633;BME280;28261;53.304;-6.284;2023-02-17T00:18:01;100925.97;;;11.41;100.00
42633;BME280;28261;53.304;-6.284;2023-02-17T00:20:05;100910.88;;;11.41;100.00
42633;BME280;28261;53.304;-6.284;2023-02-17T00:22:09;100912.78;;;11.39;100.00
42633;BME280;28261;53.304;-6.284;2023-02-17T00:24:13;100903.13;;;11.38;100.00
42633;BME280;28261;53.304;-6.284;2023-02-17T00:26:17;100901.41;;;11.37;100.00
42633;BME280;28261;53.304;-6.284;2023-02-17T00:28:21;100895.38;;;11.35;100.00
42633;BME280;28261;53.304;-6.284;2023-02-17T00:30:24;100889.31;;;11.33;100.00
42633;BME280;28261;53.304;-6.284;2023-02-17T00:32:28;100871.69;;;11.32;100.00
42633;BME280;28261;53.304;-6.284;2023-02-17T00:34:31;100873.50;;;11.31;100.00
42633;BME280;28261;53.304;-6.284;2023-02-17T00:36:35;100879.78;;;11.30;100.00
42633;BME280;28261;53.304;-6.284;2023-02-17T00:38:39;100879.66;;;11.32;100.00
42633;BME280;28261;53.304;-6.284;2023-02-17T00:40:44;100875.19;;;11.32;100.00
42633;BME280;28261;53.304;-6.284;2023-02-17T00:42:47;100880.41;;;11.34;100.00
42633;BME280;28261;53.304;-6.284;2023-02-17T00:44:51;100877.75;;;11.34;100.00
42633;BME280;28261;53.304;-6.284;2023-02-17T00:46:56;100882.09;;;11.35;100.00
42633;BME280;28261;53.304;-6.284;2023-02-17T00:48:59;100879.44;;;11.35;100.00
42633;BME280;28261;53.304;-6.284;2023-02-17T00:51:03;100883.69;;;11.38;100.00
42633;BME280;28261;53.304;-6.284;2023-02-17T00:53:08;100887.31;;;11.37;100.00
42633;BME280;28261;53.304;-6.284;2023-02-17T00:55:14;100893.44;;;11.37;100.00
42633;BME280;28261;53.304;-6.284;2023-02-17T00:57:19;100886.25;;;11.39;100.00
42633;BME280;28261;53.304;-6.284;2023-02-17T00:59:22;100874.78;;;11.39;100.00
42633;BME280;28261;53.304;-6.284;2023-02-17T01:01:25;100869.47;;;11.39;100.00
42633;BME280;28261;53.304;-6.284;2023-02-17T01:03:29;100887.97;;;11.40;100.00
42633;BME280;28261;53.304;-6.284;2023-02-17T01:05:38;100897.59;;;11.41;100.00
42633;BME280;28261;53.304;-6.284;2023-02-17T01:07:42;100882.66;;;11.40;100.00
42633;BME280;28261;53.304;-6.284;2023-02-17T01:09:46;100891.34;;;11.42;100.00
42633;BME280;28261;53.304;-6.284;2023-02-17T01:11:49;100886.03;;;11.42;100.00
42633;BME280;28261;53.304;-6.284;2023-02-17T01:13:55;100877.97;;;11.44;100.00
42633;BME280;28261;53.304;-6.284;2023-02-17T01:16:00;100878.84;;;11.44;100.00
42633;BME280;28261;53.304;-6.284;2023-02-17T01:18:04;100878.72;;;11.46;100.00
42633;BME280;28261;53.304;-6.284;2023-02-17T01:20:08;100871.59;;;11.46;100.00
42633;BME280;28261;53.304;-6.284;2023-02-17T01:22:12;100868.00;;;11.47;100.00
42633;BME280;28261;53.304;-6.284;2023-02-17T01:24:15;100860.97;;;11.46;100.00
42633;BME280;28261;53.304;-6.284;2023-02-17T01:26:20;100869.69;;;11.48;100.00
42633;BME280;28261;53.304;-6.284;2023-02-17T01:28:24;100864.38;;;11.48;100.00
42633;BME280;28261;53.304;-6.284;2023-02-17T01:30:29;100854.59;;;11.49;100.00
42633;BME280;28261;53.304;-6.284;2023-02-17T01:32:32;100846.75;;;11.47;100.00
42633;BME280;28261;53.304;-6.284;2023-02-17T01:34:36;100830.94;;;11.46;100.00
42633;BME280;28261;53.304;-6.284;2023-02-17T01:36:40;100833.69;;;11.44;100.00
42633;BME280;28261;53.304;-6.284;2023-02-17T01:38:44;100825.75;;;11.44;100.00
42633;BME280;28261;53.304;-6.284;2023-02-17T01:40:48;100817.78;;;11.44;100.00
42633;BME280;28261;53.304;-6.284;2023-02-17T01:42:55;100819.56;;;11.44;100.00
42633;BME280;28261;53.304;-6.284;2023-02-17T01:45:36;100831.06;;;11.44;100.00
42633;BME280;28261;53.304;-6.284;2023-02-17T01:47:39;100827.63;;;11.42;100.00
42633;BME280;28261;53.304;-6.284;2023-02-17T01:49:47;100831.22;;;11.41;100.00
42633;BME280;28261;53.304;-6.284;2023-02-17T01:51:52;100823.19;;;11.43;100.00
42633;BME280;28261;53.304;-6.284;2023-02-17T01:54:01;100829.34;;;11.43;100.00
42633;BME280;28261;53.304;-6.284;2023-02-17T01:56:06;100834.66;;;11.43;100.00
42633;BME280;28261;53.304;-6.284;2023-02-17T01:58:14;100834.53;;;11.45;100.00
42633;BME280;28261;53.304;-6.284;2023-02-17T02:00:20;100834.44;;;11.46;100.00
42633;BME280;28261;53.304;-6.284;2023-02-17T02:02:28;100822.03;;;11.47;100.00
42633;BME280;28261;53.304;-6.284;2023-02-17T02:04:35;100828.06;;;11.49;100.00
42633;BME280;28261;53.304;-6.284;2023-02-17T02:06:42;100823.69;;;11.48;100.00
42633;BME280;28261;53.304;-6.284;2023-02-17T02:08:50;100820.22;;;11.47;100.00
42633;BME280;28261;53.304;-6.284;2023-02-17T02:10:55;100804.28;;;11.47;100.00
42633;BME280;28261;53.304;-6.284;2023-02-17T02:13:00;100819.25;;;11.48;100.00
42633;BME280;28261;53.304;-6.284;2023-02-17T02:15:07;100796.31;;;11.47;100.00
42633;BME280;28261;53.304;-6.284;2023-02-17T02:17:15;100793.66;;;11.47;100.00
42633;BME280;28261;53.304;-6.284;2023-02-17T02:19:50;100798.13;;;11.47;100.00
42633;BME280;28261;53.304;-6.284;2023-02-17T02:24:46;100800.03;;;11.45;100.00
42633;BME280;28261;53.304;-6.284;2023-02-17T02:27:14;100799.19;;;11.44;100.00
42633;BME280;28261;53.304;-6.284;2023-02-17T02:30:02;100810.75;;;11.43;100.00
42633;BME280;28261;53.304;-6.284;2023-02-17T02:34:53;100770.94;;;11.43;100.00
42633;BME280;28261;53.304;-6.284;2023-02-17T02:37:06;100787.72;;;11.44;100.00
42633;BME280;28261;53.304;-6.284;2023-02-17T02:39:11;100769.25;;;11.42;100.00
42633;BME280;28261;53.304;-6.284;2023-02-17T02:41:19;100766.47;;;11.44;100.00
42633;BME280;28261;53.304;-6.284;2023-02-17T02:43:24;100761.06;;;11.45;100.00
42633;BME280;28261;53.304;-6.284;2023-02-17T02:45:28;100766.28;;;11.47;100.00
42633;BME280;28261;53.304;-6.284;2023-02-17T02:47:42;100756.50;;;11.47;100.00
42633;BME280;28261;53.304;-6.284;2023-02-17T02:49:48;100758.19;;;11.48;100.00
42633;BME280;28261;53.304;-6.284;2023-02-17T02:51:54;100768.81;;;11.48;100.00
42633;BME280;28261;53.304;-6.284;2023-02-17T02:54:17;100761.59;;;11.50;100.00
42633;BME280;28261;53.304;-6.284;2023-02-17T02:56:32;100741.22;;;11.51;100.00
42633;BME280;28261;53.304;-6.284;2023-02-17T02:58:53;100739.41;;;11.51;100.00
42633;BME280;28261;53.304;-6.284;2023-02-17T03:01:06;100721.75;;;11.50;100.00
42633;BME280;28261;53.304;-6.284;2023-02-17T03:03:21;100724.41;;;11.50;100.00
42633;BME280;28261;53.304;-6.284;2023-02-17T03:05:31;100714.66;;;11.51;100.00
42633;BME280;28261;53.304;-6.284;2023-02-17T03:07:39;100712.00;;;11.51;100.00
42633;BME280;28261;53.304;-6.284;2023-02-17T03:09:47;100715.72;;;11.48;100.00
42633;BME280;28261;53.304;-6.284;2023-02-17T03:11:52;100719.34;;;11.47;100.00
42633;BME280;28261;53.304;-6.284;2023-02-17T03:13:59;100721.22;;;11.45;100.00
42633;BME280;28261;53.304;-6.284;2023-02-17T03:16:04;100709.66;;;11.46;100.00
42633;BME280;28261;53.304;-6.284;2023-02-17T03:18:08;100696.38;;;11.46;100.00
42633;BME280;28261;53.304;-6.284;2023-02-17T03:20:15;100694.69;;;11.45;100.00
42633;BME280;28261;53.304;-6.284;2023-02-17T03:22:21;100699.03;;;11.46;100.00
42633;BME280;28261;53.304;-6.284;2023-02-17T03:24:25;100697.97;;;11.49;100.00
42633;BME280;28261;53.304;-6.284;2023-02-17T03:26:29;100689.78;;;11.52;100.00
42633;BME280;28261;53.304;-6.284;2023-02-17T03:28:32;100691.38;;;11.55;100.00
42633;BME280;28261;53.304;-6.284;2023-02-17T03:30:35;100693.19;;;11.54;100.00
42633;BME280;28261;53.304;-6.284;2023-02-17T03:32:39;100682.56;;;11.54;100.00
42633;BME280;28261;53.304;-6.284;2023-02-17T03:34:43;100690.66;;;11.52;100.00
42633;BME280;28261;53.304;-6.284;2023-02-17T03:36:48;100681.94;;;11.50;100.00
42633;BME280;28261;53.304;-6.284;2023-02-17T03:38:51;100685.53;;;11.49;100.00
42633;BME280;28261;53.304;-6.284;2023-02-17T03:40:55;100697.88;;;11.50;100.00
42633;BME280;28261;53.304;-6.284;2023-02-17T03:42:58;100709.34;;;11.51;100.00
42633;BME280;28261;53.304;-6.284;2023-02-17T03:45:01;100711.03;;;11.52;100.00
42633;BME280;28261;53.304;-6.284;2023-02-17T03:47:06;100717.09;;;11.54;100.00
42633;BME280;28261;53.304;-6.284;2023-02-17T03:49:10;100720.47;;;11.56;100.00
42633;BME280;28261;53.304;-6.284;2023-02-17T03:51:15;100709.78;;;11.58;100.00
42633;BME280;28261;53.304;-6.284;2023-02-17T03:53:22;100727.25;;;11.60;100.00
42633;BME280;28261;53.304;-6.284;2023-02-17T03:55:25;100720.06;;;11.62;100.00
42633;BME280;28261;53.304;-6.284;2023-02-17T03:57:28;100727.06;;;11.63;100.00
42633;BME280;28261;53.304;-6.284;2023-02-17T03:59:32;100736.09;;;11.61;100.00
42633;BME280;28261;53.304;-6.284;2023-02-17T04:01:36;100734.38;;;11.60;100.00
42633;BME280;28261;53.304;-6.284;2023-02-17T04:03:40;100750.53;;;11.57;100.00
42633;BME280;28261;53.304;-6.284;2023-02-17T04:05:44;100752.44;;;11.55;100.00
42633;BME280;28261;53.304;-6.284;2023-02-17T04:07:47;100752.44;;;11.55;100.00
42633;BME280;28261;53.304;-6.284;2023-02-17T04:09:52;100750.75;;;11.54;100.00
42633;BME280;28261;53.304;-6.284;2023-02-17T04:11:55;100758.69;;;11.54;100.00
42633;BME280;28261;53.304;-6.284;2023-02-17T04:13:58;100765.09;;;11.51;100.00
42633;BME280;28261;53.304;-6.284;2023-02-17T04:16:02;100768.81;;;11.48;100.00
42633;BME280;28261;53.304;-6.284;2023-02-17T04:18:06;100753.09;;;11.45;100.00
42633;BME280;28261;53.304;-6.284;2023-02-17T04:20:10;100765.63;;;11.43;100.00
42633;BME280;28261;53.304;-6.284;2023-02-17T04:22:14;100756.91;;;11.41;100.00
42633;BME280;28261;53.304;-6.284;2023-02-17T04:24:18;100771.28;;;11.39;100.00
42633;BME280;28261;53.304;-6.284;2023-02-17T04:26:22;100767.75;;;11.38;100.00
42633;BME280;28261;53.304;-6.284;2023-02-17T04:28:26;100766.03;;;11.37;100.00
42633;BME280;28261;53.304;-6.284;2023-02-17T04:30:29;100789.22;;;11.35;100.00
42633;BME280;28261;53.304;-6.284;2023-02-17T04:32:33;100800.78;;;11.34;100.00
42633;BME280;28261;53.304;-6.284;2023-02-17T04:34:36;100808.72;;;11.34;100.00
42633;BME280;28261;53.304;-6.284;2023-02-17T04:36:39;100814.03;;;11.34;100.00
42633;BME280;28261;53.304;-6.284;2023-02-17T04:38:45;100809.59;;;11.34;100.00
42633;BME280;28261;53.304;-6.284;2023-02-17T04:40:48;100803.44;;;11.34;100.00
42633;BME280;28261;53.304;-6.284;2023-02-17T04:42:52;100804.38;;;11.33;100.00
42633;BME280;28261;53.304;-6.284;2023-02-17T04:44:55;100806.19;;;11.32;100.00
42633;BME280;28261;53.304;-6.284;2023-02-17T04:46:58;100818.50;;;11.33;100.00
42633;BME280;28261;53.304;-6.284;2023-02-17T04:49:01;100823.06;;;11.31;100.00
42633;BME280;28261;53.304;-6.284;2023-02-17T04:51:05;100810.84;;;11.29;100.00
42633;BME280;28261;53.304;-6.284;2023-02-17T04:53:08;100828.59;;;11.28;100.00
42633;BME280;28261;53.304;-6.284;2023-02-17T04:55:11;100835.81;;;11.26;100.00
42633;BME280;28261;53.304;-6.284;2023-02-17T04:57:15;100839.31;;;11.27;100.00
42633;BME280;28261;53.304;-6.284;2023-02-17T04:59:19;100834.13;;;11.25;100.00
42633;BME280;28261;53.304;-6.284;2023-02-17T05:01:26;100843.84;;;11.25;100.00
42633;BME280;28261;53.304;-6.284;2023-02-17T05:03:29;100838.56;;;11.25;100.00
42633;BME280;28261;53.304;-6.284;2023-02-17T05:05:33;100842.06;;;11.25;100.00
42633;BME280;28261;53.304;-6.284;2023-02-17T05:07:36;100839.53;;;11.24;100.00
42633;BME280;28261;53.304;-6.284;2023-02-17T05:09:39;100836.88;;;11.24;100.00
42633;BME280;28261;53.304;-6.284;2023-02-17T05:11:43;100842.19;;;11.24;100.00
42633;BME280;28261;53.304;-6.284;2023-02-17T05:13:46;100842.19;;;11.24;100.00
42633;BME280;28261;53.304;-6.284;2023-02-17T05:15:51;100848.22;;;11.26;100.00
42633;BME280;28261;53.304;-6.284;2023-02-17T05:17:54;100844.63;;;11.27;100.00
42633;BME280;28261;53.304;-6.284;2023-02-17T05:19:57;100836.56;;;11.28;100.00
42633;BME280;28261;53.304;-6.284;2023-02-17T05:22:00;100850.66;;;11.29;100.00
42633;BME280;28261;53.304;-6.284;2023-02-17T05:24:04;100861.09;;;11.32;100.00
42633;BME280;28261;53.304;-6.284;2023-02-17T05:26:08;100862.69;;;11.34;100.00
42633;BME280;28261;53.304;-6.284;2023-02-17T05:28:11;100853.75;;;11.35;100.00
42633;BME280;28261;53.304;-6.284;2023-02-17T05:30:14;100841.22;;;11.38;100.00
42633;BME280;28261;53.304;-6.284;2023-02-17T05:32:20;100852.69;;;11.38;100.00
42633;BME280;28261;53.304;-6.284;2023-02-17T05:34:24;100860.53;;;11.40;100.00
42633;BME280;28261;53.304;-6.284;2023-02-17T05:36:27;100873.72;;;11.41;100.00
42633;BME280;28261;53.304;-6.284;2023-02-17T05:38:30;100863.97;;;11.42;100.00
42633;BME280;28261;53.304;-6.284;2023-02-17T05:40:34;100861.41;;;11.40;100.00
42633;BME280;28261;53.304;-6.284;2023-02-17T05:42:37;100866.84;;;11.39;100.00
42633;BME280;28261;53.304;-6.284;2023-02-17T05:44:40;100889.97;;;11.37;100.00
42633;BME280;28261;53.304;-6.284;2023-02-17T05:46:43;100855.56;;;11.35;100.00
42633;BME280;28261;53.304;-6.284;2023-02-17T05:48:48;100869.06;;;11.32;100.00
42633;BME280;28261;53.304;-6.284;2023-02-17T05:50:51;100873.59;;;11.30;100.00
42633;BME280;28261;53.304;-6.284;2023-02-17T05:52:54;100871.16;;;11.27;100.00
42633;BME280;28261;53.304;-6.284;2023-02-17T05:54:58;100879.22;;;11.25;100.00
42633;BME280;28261;53.304;-6.284;2023-02-17T05:57:01;100877.53;;;11.24;100.00
42633;BME280;28261;53.304;-6.284;2023-02-17T05:59:04;100878.34;;;11.25;100.00
42633;BME280;28261;53.304;-6.284;2023-02-17T06:01:07;100879.44;;;11.22;100.00
42633;BME280;28261;53.304;-6.284;2023-02-17T06:03:11;100878.56;;;11.22;100.00
42633;BME280;28261;53.304;-6.284;2023-02-17T06:05:16;100885.81;;;11.20;100.00
42633;BME280;28261;53.304;-6.284;2023-02-17T06:07:19;100882.16;;;11.21;100.00
42633;BME280;28261;53.304;-6.284;2023-02-17T06:09:22;100887.47;;;11.21;100.00
42633;BME280;28261;53.304;-6.284;2023-02-17T06:11:25;100890.91;;;11.23;100.00
42633;BME280;28261;53.304;-6.284;2023-02-17T06:13:28;100882.81;;;11.24;100.00
42633;BME280;28261;53.304;-6.284;2023-02-17T06:15:32;100873.91;;;11.25;100.00
42633;BME280;28261;53.304;-6.284;2023-02-17T06:17:35;100899.41;;;11.28;100.00
42633;BME280;28261;53.304;-6.284;2023-02-17T06:19:39;100882.44;;;11.30;100.00
42633;BME280;28261;53.304;-6.284;2023-02-17T06:21:43;100898.25;;;11.32;100.00
42633;BME280;28261;53.304;-6.284;2023-02-17T06:23:47;100900.03;;;11.31;100.00
42633;BME280;28261;53.304;-6.284;2023-02-17T06:25:50;100885.16;;;11.29;100.00
42633;BME280;28261;53.304;-6.284;2023-02-17T06:27:53;100897.69;;;11.27;100.00
42633;BME280;28261;53.304;-6.284;2023-02-17T06:29:56;100903.94;;;11.26;100.00
42633;BME280;28261;53.304;-6.284;2023-02-17T06:32:00;100909.47;;;11.23;100.00
42633;BME280;28261;53.304;-6.284;2023-02-17T06:34:03;100912.34;;;11.20;100.00
42633;BME280;28261;53.304;-6.284;2023-02-17T06:36:07;100926.66;;;11.17;100.00
42633;BME280;28261;53.304;-6.284;2023-02-17T06:38:12;100944.34;;;11.16;100.00
42633;BME280;28261;53.304;-6.284;2023-02-17T06:40:16;100955.19;;;11.13;100.00
42633;BME280;28261;53.304;-6.284;2023-02-17T06:42:19;100953.47;;;11.12;100.00
42633;BME280;28261;53.304;-6.284;2023-02-17T06:44:22;100949.16;;;11.11;100.00
42633;BME280;28261;53.304;-6.284;2023-02-17T06:46:25;100961.63;;;11.09;100.00
42633;BME280;28261;53.304;-6.284;2023-02-17T06:48:29;100961.75;;;11.08;100.00
42633;BME280;28261;53.304;-6.284;2023-02-17T06:50:33;100971.69;;;11.04;100.00
42633;BME280;28261;53.304;-6.284;2023-02-17T06:52:37;100972.66;;;11.03;100.00
42633;BME280;28261;53.304;-6.284;2023-02-17T06:54:42;100985.28;;;10.99;100.00
42633;BME280;28261;53.304;-6.284;2023-02-17T06:56:48;100982.72;;;10.98;100.00
42633;BME280;28261;53.304;-6.284;2023-02-17T06:58:51;100983.66;;;10.97;100.00
42633;BME280;28261;53.304;-6.284;2023-02-17T07:00:54;100995.22;;;10.96;100.00
42633;BME280;28261;53.304;-6.284;2023-02-17T07:02:57;100992.78;;;10.93;100.00
42633;BME280;28261;53.304;-6.284;2023-02-17T07:05:01;100998.06;;;10.93;100.00
42633;BME280;28261;53.304;-6.284;2023-02-17T07:07:04;101007.94;;;10.91;100.00
42633;BME280;28261;53.304;-6.284;2023-02-17T07:09:07;100989.38;;;10.91;100.00
42633;BME280;28261;53.304;-6.284;2023-02-17T07:11:14;101008.78;;;10.91;100.00
42633;BME280;28261;53.304;-6.284;2023-02-17T07:13:17;101007.06;;;10.90;100.00
42633;BME280;28261;53.304;-6.284;2023-02-17T07:15:20;101025.53;;;10.92;100.00
42633;BME280;28261;53.304;-6.284;2023-02-17T07:17:24;101029.91;;;10.93;100.00
42633;BME280;28261;53.304;-6.284;2023-02-17T07:19:27;101037.88;;;10.93;100.00
42633;BME280;28261;53.304;-6.284;2023-02-17T07:21:31;101044.00;;;10.93;100.00
42633;BME280;28261;53.304;-6.284;2023-02-17T07:23:35;101050.19;;;10.94;100.00
42633;BME280;28261;53.304;-6.284;2023-02-17T07:25:39;101070.53;;;10.93;100.00
42633;BME280;28261;53.304;-6.284;2023-02-17T07:27:43;101067.81;;;10.95;100.00
42633;BME280;28261;53.304;-6.284;2023-02-17T07:29:47;101071.41;;;10.94;100.00
42633;BME280;28261;53.304;-6.284;2023-02-17T07:31:50;101090.91;;;10.93;100.00
42633;BME280;28261;53.304;-6.284;2023-02-17T07:33:53;101090.91;;;10.93;100.00
42633;BME280;28261;53.304;-6.284;2023-02-17T07:35:57;101098.03;;;10.92;100.00
42633;BME280;28261;53.304;-6.284;2023-02-17T07:38:01;101091.00;;;10.91;100.00
42633;BME280;28261;53.304;-6.284;2023-02-17T07:40:06;101094.59;;;10.90;100.00
42633;BME280;28261;53.304;-6.284;2023-02-17T07:42:09;101093.00;;;10.88;100.00
42633;BME280;28261;53.304;-6.284;2023-02-17T07:44:14;101108.91;;;10.88;100.00
42633;BME280;28261;53.304;-6.284;2023-02-17T07:46:18;101119.63;;;10.86;100.00
42633;BME280;28261;53.304;-6.284;2023-02-17T07:48:22;101121.59;;;10.82;100.00
42633;BME280;28261;53.304;-6.284;2023-02-17T07:50:26;101126.16;;;10.80;100.00
42633;BME280;28261;53.304;-6.284;2023-02-17T07:52:29;101132.59;;;10.76;100.00
42633;BME280;28261;53.304;-6.284;2023-02-17T07:54:33;101127.66;;;10.70;100.00
42633;BME280;28261;53.304;-6.284;2023-02-17T07:56:37;101111.00;;;10.68;100.00
42633;BME280;28261;53.304;-6.284;2023-02-17T07:58:41;101128.03;;;10.64;100.00
42633;BME280;28261;53.304;-6.284;2023-02-17T08:00:47;101129.19;;;10.60;100.00
42633;BME280;28261;53.304;-6.284;2023-02-17T08:02:51;101138.16;;;10.57;100.00
42633;BME280;28261;53.304;-6.284;2023-02-17T08:04:55;101139.19;;;10.55;100.00
42633;BME280;28261;53.304;-6.284;2023-02-17T08:06:58;101148.97;;;10.54;100.00
42633;BME280;28261;53.304;-6.284;2023-02-17T08:09:02;101161.34;;;10.54;100.00
42633;BME280;28261;53.304;-6.284;2023-02-17T08:11:23;101166.66;;;10.54;100.00
42633;BME280;28261;53.304;-6.284;2023-02-17T08:13:46;101166.75;;;10.52;100.00
42633;BME280;28261;53.304;-6.284;2023-02-17T08:15:51;101177.25;;;10.54;100.00
42633;BME280;28261;53.304;-6.284;2023-02-17T08:17:55;101176.22;;;10.56;100.00
42633;BME280;28261;53.304;-6.284;2023-02-17T08:19:59;101179.56;;;10.60;100.00
42633;BME280;28261;53.304;-6.284;2023-02-17T08:22:10;101192.72;;;10.61;100.00
42633;BME280;28261;53.304;-6.284;2023-02-17T08:24:14;101185.59;;;10.62;100.00
42633;BME280;28261;53.304;-6.284;2023-02-17T08:26:18;101187.31;;;10.63;100.00
42633;BME280;28261;53.304;-6.284;2023-02-17T08:28:22;101195.38;;;10.61;100.00
42633;BME280;28261;53.304;-6.284;2023-02-17T08:30:26;101195.38;;;10.61;100.00
42633;BME280;28261;53.304;-6.284;2023-02-17T08:32:31;101198.22;;;10.58;100.00
42633;BME280;28261;53.304;-6.284;2023-02-17T08:34:35;101212.41;;;10.57;100.00
42633;BME280;28261;53.304;-6.284;2023-02-17T12:33:58;101573.31;;;12.96;82.88
42633;BME280;28261;53.304;-6.284;2023-02-17T12:36:08;101574.66;;;12.89;83.31
42633;BME280;28261;53.304;-6.284;2023-02-17T12:38:16;101571.41;;;12.83;83.62
42633;BME280;28261;53.304;-6.284;2023-02-17T12:40:30;101578.44;;;12.84;83.30
42633;BME280;28261;53.304;-6.284;2023-02-17T12:42:37;101569.53;;;12.85;84.46
42633;BME280;28261;53.304;-6.284;2023-02-17T12:44:45;101573.69;;;12.90;83.49
42633;BME280;28261;53.304;-6.284;2023-02-17T12:46:52;101566.38;;;12.93;83.13
42633;BME280;28261;53.304;-6.284;2023-02-17T12:49:01;101569.53;;;13.00;83.49
42633;BME280;28261;53.304;-6.284;2023-02-17T12:51:11;101551.41;;;13.05;83.27
42633;BME280;28261;53.304;-6.284;2023-02-17T12:53:21;101554.75;;;13.09;82.57
42633;BME280;28261;53.304;-6.284;2023-02-17T12:55:35;101552.94;;;13.09;82.27
42633;BME280;28261;53.304;-6.284;2023-02-17T12:57:44;101551.78;;;13.13;82.94
42633;BME280;28261;53.304;-6.284;2023-02-17T12:59:56;101549.00;;;13.15;82.16
42633;BME280;28261;53.304;-6.284;2023-02-17T13:02:04;101549.00;;;13.15;81.60
42633;BME280;28261;53.304;-6.284;2023-02-17T13:04:14;101552.56;;;13.15;81.49
42633;BME280;28261;53.304;-6.284;2023-02-17T13:06:24;101557.00;;;13.15;81.61
42633;BME280;28261;53.304;-6.284;2023-02-17T13:08:35;101556.25;;;13.13;82.43
42633;BME280;28261;53.304;-6.284;2023-02-17T13:10:41;101551.25;;;13.08;81.69
42633;BME280;28261;53.304;-6.284;2023-02-17T13:12:54;101545.56;;;13.00;80.97
42633;BME280;28261;53.304;-6.284;2023-02-17T13:15:00;101527.50;;;12.91;81.25
42633;BME280;28261;53.304;-6.284;2023-02-17T13:17:19;101537.59;;;12.85;80.99
42633;BME280;28261;53.304;-6.284;2023-02-17T13:19:29;101550.13;;;12.83;81.48
42633;BME280;28261;53.304;-6.284;2023-02-17T13:21:33;101540.63;;;12.79;80.37
42633;BME280;28261;53.304;-6.284;2023-02-17T13:23:38;101542.66;;;12.76;80.45
42633;BME280;28261;53.304;-6.284;2023-02-17T13:25:42;101541.78;;;12.75;80.41
42633;BME280;28261;53.304;-6.284;2023-02-17T13:27:46;101538.06;;;12.78;80.69
42633;BME280;28261;53.304;-6.284;2023-02-17T13:29:58;101544.16;;;12.80;80.09
42633;BME280;28261;53.304;-6.284;2023-02-17T13:32:05;101543.97;;;12.83;80.26
42633;BME280;28261;53.304;-6.284;2023-02-17T13:34:09;101549.00;;;12.88;79.79
42633;BME280;28261;53.304;-6.284;2023-02-17T13:36:18;101550.69;;;12.89;79.64
42633;BME280;28261;53.304;-6.284;2023-02-17T13:38:26;101546.34;;;12.88;79.25
42633;BME280;28261;53.304;-6.284;2023-02-17T13:40:35;101550.69;;;12.89;79.29
42633;BME280;28261;53.304;-6.284;2023-02-17T13:42:42;101546.97;;;12.91;79.78
42633;BME280;28261;53.304;-6.284;2023-02-17T13:44:46;101529.97;;;12.94;79.84
42633;BME280;28261;53.304;-6.284;2023-02-17T13:46:52;101537.75;;;12.97;79.69
42633;BME280;28261;53.304;-6.284;2023-02-17T13:48:59;101535.56;;;13.03;79.73
42633;BME280;28261;53.304;-6.284;2023-02-17T13:51:06;101542.19;;;13.11;80.34
42633;BME280;28261;53.304;-6.284;2023-02-17T13:53:30;101537.53;;;13.14;79.50
42633;BME280;28261;53.304;-6.284;2023-02-17T13:55:38;101541.91;;;13.15;79.09
42633;BME280;28261;53.304;-6.284;2023-02-17T13:57:43;101539.25;;;13.15;79.56
42633;BME280;28261;53.304;-6.284;2023-02-17T13:59:47;101531.16;;;13.17;79.68
42633;BME280;28261;53.304;-6.284;2023-02-17T14:01:51;101530.09;;;13.19;80.16
42633;BME280;28261;53.304;-6.284;2023-02-17T14:03:56;101530.94;;;13.20;79.62
42633;BME280;28261;53.304;-6.284;2023-02-17T14:06:01;101518.88;;;13.14;79.83
42633;BME280;28261;53.304;-6.284;2023-02-17T14:08:11;101517.28;;;13.12;80.35
42633;BME280;28261;53.304;-6.284;2023-02-17T14:10:23;101513.00;;;13.09;79.94
42633;BME280;28261;53.304;-6.284;2023-02-17T14:12:28;101508.84;;;13.05;79.91
42633;BME280;28261;53.304;-6.284;2023-02-17T14:14:33;101511.69;;;13.02;80.81
42633;BME280;28261;53.304;-6.284;2023-02-17T14:16:40;101513.78;;;12.97;80.94
42633;BME280;28261;53.304;-6.284;2023-02-17T14:18:45;101516.78;;;12.92;80.99
42633;BME280;28261;53.304;-6.284;2023-02-17T14:20:58;101509.16;;;12.86;81.05
42633;BME280;28261;53.304;-6.284;2023-02-17T14:23:05;101503.09;;;12.84;81.60
42633;BME280;28261;53.304;-6.284;2023-02-17T14:25:13;101499.50;;;12.85;81.95
42633;BME280;28261;53.304;-6.284;2023-02-17T14:27:19;101501.19;;;12.86;81.81
42633;BME280;28261;53.304;-6.284;2023-02-17T14:29:22;101500.34;;;12.85;82.28
42633;BME280;28261;53.304;-6.284;2023-02-17T14:31:26;101502.91;;;12.87;82.17
42633;BME280;28261;53.304;-6.284;2023-02-17T14:33:30;101498.44;;;12.88;81.96
42633;BME280;28261;53.304;-6.284;2023-02-17T14:35:35;101503.78;;;12.88;81.98
42633;BME280;28261;53.304;-6.284;2023-02-17T14:37:41;101498.44;;;12.88;81.63
42633;BME280;28261;53.304;-6.284;2023-02-17T14:39:45;101494.06;;;12.86;81.39
42633;BME280;28261;53.304;-6.284;2023-02-17T14:41:48;101494.81;;;12.89;82.19
42633;BME280;28261;53.304;-6.284;2023-02-17T14:43:54;101501.84;;;12.90;81.97
42633;BME280;28261;53.304;-6.284;2023-02-17T14:45:58;101501.00;;;12.89;82.62